Barton City, Michigan
Current Conditions -  °F | °C
As of 8:54 AM on Friday 24 Oct 2014 (Local Time) from KOSC Reporting Station
Haze Haze  
Wind Chill: 41°   Ceiling: 3000
Heat Index: 41°   Visibility: 4mi
Dew Point: 41°   Wind: 3mph
Humidity: 97%   Direction: 230°SW
Pressure: 30.03"   Gusts: NA
Location:  44.68°N, 83.61°W
Report Text: KOSC 241254Z AUTO 23003KT 4SM BR BKN030 05/05 A3003 RMK AO2 T00520048
Loading
Personal Weather Stations






























Interactive Weather Map
Tropical Storm Tracking
New forecast layout! Learn more

10-Day Weather Forecast

Advertisements
Track Severe Weather on mobile